• Join FlightAware (Why Join?)
  • Login
  • US Flag 
01:41AM EDT


 

Airport Tracker/Info


-or-


 

Live Flight TrackerFlight Track Log ✈ USC105 ✈ 18-Apr-2013 ✈ KYIP - KLCK

Flight Track Log - Related Links

Times and Time Zones

All times are in EDT time to prevent confusion due to time zone crossing. See the USC105 flight status page for this flight to view local times or setup timezone preferences in your user account.

Time Position Orientation Groundspeed Altitude Reporting Facility
EDT Latitude Longitude Course Direction KTS MPH feet Rate Location/Type
07:34AM 42.2183 -83.5639 160° South 99 114 2,100  Level FAA TRACON SMA TRACON (SMA)
07:35AM 42.2147 -83.5728 241° Southwest 83 96 2,400 720 Climbing FAA TRACON SMA TRACON (SMA)
07:35AM 42.2103 -83.5817 236° Southwest 90 104 2,600 720 Climbing FAA TRACON SMA TRACON (SMA)
07:36AM 42.2044 -83.5922 233° Southwest 91 105 2,900 840 Climbing FAA TRACON SMA TRACON (SMA)
07:36AM 42.1994 -83.6003 230° Southwest 91 105 3,200 900 Climbing FAA TRACON SMA TRACON (SMA)
07:36AM 42.1944 -83.6075 227° Southwest 87 100 3,500 900 Climbing FAA TRACON SMA TRACON (SMA)
07:37AM 42.1881 -83.6156 223° Southwest 83 96 3,800 600 Climbing FAA TRACON SMA TRACON (SMA)
07:37AM 42.1828 -83.6231 226° Southwest 91 105 3,900 240 Climbing FAA TRACON SMA TRACON (SMA)
07:37AM 42.1767 -83.6322 228° Southwest 107 123 4,000 120 Climbing FAA TRACON SMA TRACON (SMA)
07:38AM 42.1692 -83.6433 228° Southwest 106 122 4,000  Level FAA TRACON SMA TRACON (SMA)
07:38AM 42.1628 -83.6519 225° Southwest 105 121 4,000  Level FAA TRACON SMA TRACON (SMA)
07:38AM 42.1564 -83.6603 224° Southwest 103 119 4,000  Level FAA TRACON SMA TRACON (SMA)
07:39AM 42.1453 -83.6608 182° South 125 144 4,000  Level FAA TRACON SMA TRACON (SMA)
07:39AM 42.1350 -83.6547 156° South 130 150 4,000  Level FAA TRACON SMA TRACON (SMA)
07:39AM 42.1233 -83.6472 155° Southeast 132 152 4,000  Level FAA TRACON SMA TRACON (SMA)
07:40AM 41.9829 -83.4415 160° South  Level FlightAware Approximate
07:40AM 42.1122 -83.6397 153° Southeast 131 151 4,000  Level FAA TRACON SMA TRACON (SMA)
07:40AM 42.1022 -83.6325 152° Southeast 131 151 4,000  Level FAA TRACON SMA TRACON (SMA)
07:41AM 42.0800 -83.6167 152° Southeast 132 152 4,000  Level FAA TRACON SMA TRACON (SMA)
07:41AM 42.0700 -83.6097 153° Southeast 131 151 4,000  Level FAA TRACON SMA TRACON (SMA)
07:41AM 42.0597 -83.6025 152° Southeast 132 152 4,000  Level FAA TRACON SMA TRACON (SMA)
07:42AM 42.0467 -83.5931 152° Southeast 136 157 4,000  Level FAA TRACON SMA TRACON (SMA)
07:42AM 42.0356 -83.5858 154° Southeast 143 165 4,000  Level FAA TRACON SMA TRACON (SMA)
07:42AM 42.0217 -83.5778 157° South 152 175 4,000  Level FAA TRACON SMA TRACON (SMA)
07:43AM 42.0100 -83.5692 151° Southeast 163 188 4,000  Level FAA TRACON SMA TRACON (SMA)
07:43AM 41.9967 -83.5561 144° Southeast 167 192 4,000  Level FAA TRACON SMA TRACON (SMA)
07:43AM 41.9833 -83.5469 153° Southeast 158 182 4,000  Level FAA TRACON SMA TRACON (SMA)
07:44AM 41.9692 -83.5403 161° South 156 180 4,000  Level FAA TRACON SMA TRACON (SMA)
07:44AM 41.9544 -83.5314 156° South 160 184 4,000  Level FAA TRACON SMA TRACON (SMA)
07:44AM 41.9425 -83.5233 153° Southeast 163 188 4,000  Level FAA TRACON SMA TRACON (SMA)
07:45AM 41.9281 -83.5131 152° Southeast 163 188 4,000  Level FAA TRACON SMA TRACON (SMA)
07:45AM 41.9164 -83.5050 153° Southeast 162 186 4,000  Level FAA TRACON SMA TRACON (SMA)
07:45AM 41.9014 -83.4950 154° Southeast 162 186 4,000  Level FAA TRACON SMA TRACON (SMA)
07:46AM 41.8894 -83.4869 153° Southeast 161 185 4,000  Level FAA TRACON SMA TRACON (SMA)
07:46AM 41.8756 -83.4778 154° Southeast 160 184 4,000  Level FAA TRACON SMA TRACON (SMA)
07:46AM 41.8631 -83.4689 152° Southeast 161 185 4,000  Level FAA TRACON SMA TRACON (SMA)
07:47AM 41.8475 -83.4589 154° Southeast 161 185 4,000  Level FAA TRACON SMA TRACON (SMA)
07:47AM 41.8353 -83.4508 154° Southeast 160 184 4,000 600 Level FAA TRACON SMA TRACON (SMA)
07:47AM 41.8242 -83.4425 151° Southeast 154 177 4,400 1,200 Climbing FAA TRACON SMA TRACON (SMA)
07:47AM 41.8131 -83.4336 149° Southeast 118 136 4,800 1,020 Climbing FAA TRACON SMA TRACON (SMA)
07:48AM 41.8042 -83.4283 156° South 118 136 5,100 720 Climbing FAA TRACON SMA TRACON (SMA)
07:48AM 41.7950 -83.4228 156° South 129 148 5,300 600 Climbing FAA TRACON SMA TRACON (SMA)
07:49AM 41.7831 -83.4153 155° Southeast 124 143 5,500 540 Climbing FAA TRACON SMA TRACON (SMA)
07:49AM 41.7733 -83.4086 153° Southeast 127 146 5,700 600 Climbing FAA TRACON SMA TRACON (SMA)
07:49AM 41.7631 -83.4014 152° Southeast 130 150 5,900 720 Climbing FAA TRACON SMA TRACON (SMA)
07:50AM 41.7506 -83.3950 159° South 122 140 6,200 720 Climbing FAA TRACON SMA TRACON (SMA)
07:50AM 41.7403 -83.3911 164° South 124 143 6,400 720 Climbing FAA TRACON SMA TRACON (SMA)
07:50AM 41.7303 -83.3886 169° South 121 139 6,700 720 Climbing FAA TRACON SMA TRACON (SMA)
07:51AM 41.7172 -83.3872 175° South 121 139 6,900 360 Climbing FAA TRACON SMA TRACON (SMA)
07:51AM 41.7061 -83.3858 175° South 126 145 7,000 120 Climbing FAA TRACON SMA TRACON (SMA)
07:51AM 41.6906 -83.3819 169° South 146 168 7,000  Level FAA TRACON SMA TRACON (SMA)
07:51AM 41.6803 -83.3783 165° South 157 181 7,000  Level FAA TRACON SMA TRACON (SMA)
07:52AM 41.6639 -83.3736 168° South 154 177 7,000  Level FAA TRACON SMA TRACON (SMA)
07:52AM 41.6508 -83.3700 168° South 157 181 7,000  Level FAA TRACON SMA TRACON (SMA)
07:53AM 41.6344 -83.3672 173° South 155 178 7,000  Level FAA TRACON SMA TRACON (SMA)
07:53AM 41.6214 -83.3633 167° South 156 180 7,000  Level FAA TRACON SMA TRACON (SMA)
07:53AM 41.6081 -83.3594 168° South 157 181 7,000  Level FAA TRACON SMA TRACON (SMA)
07:54AM 41.5914 -83.3558 171° South 157 181 7,000  Level FAA TRACON SMA TRACON (SMA)
07:54AM 41.5778 -83.3531 171° South 158 182 7,000  Level FAA TRACON SMA TRACON (SMA)
07:54AM 41.5647 -83.3494 168° South 158 182 7,000  Level FAA TRACON SMA TRACON (SMA)
07:54AM 41.5478 -83.3453 170° South 159 183 7,000  Level FAA TRACON SMA TRACON (SMA)
07:55AM 41.5342 -83.3419 170° South 159 183 7,000  Level FAA TRACON SMA TRACON (SMA)
07:55AM 41.5208 -83.3386 169° South 159 183 7,000  Level FAA TRACON SMA TRACON (SMA)
07:55AM 41.5039 -83.3339 168° South 160 184 7,000  Level FAA TRACON SMA TRACON (SMA)
07:56AM 41.4906 -83.3317 173° South 159 183 7,000  Level FAA TRACON SMA TRACON (SMA)
07:56AM 41.4772 -83.3269 165° South 159 183 7,000  Level FAA TRACON SMA TRACON (SMA)
07:56AM 41.4639 -83.3244 172° South 158 182 7,000  Level FAA TRACON SMA TRACON (SMA)
07:57AM 41.4472 -83.3197 168° South 158 182 7,000  Level FAA TRACON SMA TRACON (SMA)
07:57AM 41.4339 -83.3167 170° South 158 182 7,000  Level FAA TRACON SMA TRACON (SMA)
07:58AM 41.4172 -83.3128 170° South 158 182 7,000  Level FAA TRACON SMA TRACON (SMA)
07:58AM 41.4036 -83.3097 170° South 158 182 7,000  Level FAA TRACON SMA TRACON (SMA)
07:58AM 41.3906 -83.3058 167° South 158 182 7,000  Level FAA TRACON SMA TRACON (SMA)
07:59AM 41.3739 -83.3017 169° South 158 182 7,000  Level FAA TRACON SMA TRACON (SMA)
07:59AM 41.3606 -83.2986 170° South 158 182 7,000  Level FAA TRACON SMA TRACON (SMA)
07:59AM 41.3469 -83.2958 171° South 158 182 7,000  Level FAA TRACON SMA TRACON (SMA)
07:59AM 41.3369 -83.2933 169° South 159 183 7,000  Level FAA TRACON SMA TRACON (SMA)
08:01AM 41.2619 -83.2733 169° South 161 185 7,000  Level Indianapolis Center
08:02AM 41.2183 -83.2633 170° South 160 184 7,000  Level Indianapolis Center
08:03AM 41.1739 -83.2525 170° South 160 184 7,000 -60 Level Indianapolis Center
08:04AM 41.1286 -83.2417 170° South 163 188 6,900 -60 Descending Indianapolis Center
08:05AM 41.0831 -83.2311 170° South 165 190 6,900  Level Indianapolis Center
08:06AM 41.0389 -83.2189 168° South 162 186 6,900  Level Indianapolis Center
08:07AM 40.9950 -83.2086 170° South 160 184 6,900  Level Indianapolis Center
08:08AM 40.9503 -83.1983 170° South 160 184 6,900  Level Indianapolis Center
08:09AM 40.9056 -83.1864 169° South 162 186 6,900  Level Indianapolis Center
08:10AM 40.8628 -83.1767 170° South 158 182 6,900  Level Indianapolis Center
08:11AM 40.8111 -83.1636 169° South 159 183 6,900  Level Indianapolis Center
08:12AM 40.7672 -83.1547 171° South 159 183 7,000  Climbing Indianapolis Center
08:13AM 40.7233 -83.1439 169° South 159 183 7,000  Level Indianapolis Center
08:14AM 40.6792 -83.1322 169° South 161 185 7,000  Level Indianapolis Center
08:15AM 40.6350 -83.1217 170° South 161 185 7,000  Level Indianapolis Center
08:16AM 40.5917 -83.1111 170° South 158 182 7,000  Level Indianapolis Center
08:17AM 40.5458 -83.1000 170° South 164 189 7,000  Level Indianapolis Center
08:18AM 40.5036 -83.0903 170° South 161 185 7,000 -60 Level Indianapolis Center
08:19AM 40.4600 -83.0792 169° South 158 182 6,900  Descending Indianapolis Center
08:20AM 40.4156 -83.0692 170° South 160 184 7,000  Climbing Indianapolis Center
08:21AM 40.3703 -83.0586 170° South 162 186 7,000  Level Indianapolis Center
08:23AM 40.3269 -83.0481 169° South 159 183 7,000  Level Indianapolis Center
08:24AM 40.2828 -83.0378 170° South 159 183 7,000 -120 Level Indianapolis Center
08:24AM 40.2661 -83.0358 175° South 160 184 6,900  Descending Indianapolis Center
08:25AM 40.2381 -83.0281 168° South 161 185 7,000 60 Climbing Indianapolis Center
08:25AM 40.2186 -83.0250 173° South 160 184 7,000 -120 Level Indianapolis Center
08:26AM 40.1958 -83.0169 165° South 154 177 6,900  Descending Indianapolis Center
08:26AM 40.1794 -83.0178 182° South 142 163 7,000 60 Climbing Indianapolis Center
08:27AM 40.1492 -83.0178 180° South 143 165 7,000  Level Indianapolis Center
08:27AM 40.1397 -83.0186 184° South 142 163 7,000 -120 Level Indianapolis Center
08:28AM 40.1089 -83.0206 183° South 142 163 6,900 -60 Descending Indianapolis Center
08:29AM 40.0703 -83.0222 182° South 138 159 6,900  Level Indianapolis Center
08:30AM 40.0261 -83.0244 182° South 137 158 6,900  Level Indianapolis Center
08:31AM 39.9933 -83.0244 180° South 136 157 7,000 -240 Climbing Indianapolis Center
08:32AM 39.9539 -83.0269 183° South 141 162 6,500 -780 Descending Indianapolis Center
08:33AM 39.9128 -82.9953 149° Southeast 177 204 5,500 -1,680 Descending Indianapolis Center
08:34AM 39.8764 -82.9394 130° Southeast 194 223 3,100 -1,680 Descending Indianapolis Center
08:35AM 39.8444 -82.8975 135° Southeast 112 129 1,900 -1,140 Descending Indianapolis Center
08:36AM 39.8275 -82.9108 211° Southwest 132 152 900 -1,200 Descending Indianapolis Center
08:38AM 39.8138 -82.9278 159° South  Level Estimated